createdAt,value
2022-11-06T00:00:48.309Z,10.50
2022-11-06T00:03:55.006Z,11.00
2022-11-06T00:06:57.973Z,11.50
2022-11-06T00:10:00.896Z,11.80
2022-11-06T00:13:04.209Z,13.20
2022-11-06T00:16:09.321Z,12.00
2022-11-06T00:19:12.691Z,12.80
2022-11-06T00:22:16.520Z,12.40
2022-11-06T00:25:19.439Z,13.30
2022-11-06T00:28:23.180Z,16.50
2022-11-06T00:31:29.127Z,15.40
2022-11-06T00:34:32.191Z,14.00
2022-11-06T00:37:35.832Z,14.10
2022-11-06T00:40:38.763Z,15.00
2022-11-06T00:43:42.897Z,14.40
2022-11-06T00:46:45.776Z,15.60
2022-11-06T00:49:48.720Z,14.40
2022-11-06T00:52:51.697Z,13.90
2022-11-06T00:55:54.640Z,13.60
2022-11-06T00:59:02.654Z,13.40
2022-11-06T01:02:05.738Z,12.30
2022-11-06T01:05:08.894Z,12.60
2022-11-06T01:08:12.158Z,12.80
2022-11-06T01:11:18.792Z,13.10
2022-11-06T01:14:22.950Z,13.30
2022-11-06T01:17:25.895Z,12.70
2022-11-06T01:20:28.758Z,13.70
2022-11-06T01:23:31.638Z,12.80
2022-11-06T01:26:39.308Z,13.60
2022-11-06T01:29:45.842Z,13.30
2022-11-06T01:32:48.773Z,14.30
2022-11-06T01:35:52.229Z,15.40
2022-11-06T01:38:58.041Z,13.70
2022-11-06T01:42:01.100Z,14.20
2022-11-06T01:45:52.416Z,15.30
2022-11-06T01:49:04.902Z,16.70
2022-11-06T01:52:12.297Z,15.10
2022-11-06T01:55:21.323Z,15.00
2022-11-06T01:58:26.607Z,15.10
2022-11-06T02:01:29.617Z,14.30
2022-11-06T02:04:36.450Z,14.80
2022-11-06T02:07:40.839Z,14.50
2022-11-06T02:10:44.589Z,14.90
2022-11-06T02:14:07.985Z,14.30
2022-11-06T02:17:40.048Z,16.20
2022-11-06T02:21:05.947Z,11.10
2022-11-06T02:24:28.071Z,13.80
2022-11-06T02:27:32.367Z,14.10
2022-11-06T02:30:43.177Z,13.40
2022-11-06T02:33:52.059Z,14.10
2022-11-06T02:37:03.955Z,16.40
2022-11-06T02:40:09.719Z,13.70
2022-11-06T02:43:15.879Z,13.60
2022-11-06T02:46:46.790Z,12.90
2022-11-06T02:49:57.621Z,12.70
2022-11-06T02:53:04.184Z,12.80
2022-11-06T02:56:14.528Z,12.00
2022-11-06T02:59:43.295Z,11.30
2022-11-06T03:02:52.144Z,10.10
2022-11-06T03:06:01.904Z,10.70
2022-11-06T03:09:09.943Z,10.10
2022-11-06T03:12:33.464Z,9.80
2022-11-06T03:15:48.628Z,10.10
2022-11-06T03:19:07.462Z,9.70
2022-11-06T03:22:14.373Z,9.40
2022-11-06T03:25:35.518Z,10.40
2022-11-06T03:28:43.646Z,9.40
2022-11-06T03:31:51.924Z,9.80
2022-11-06T03:35:07.268Z,9.10
2022-11-06T03:38:20.252Z,9.20
2022-11-06T03:41:33.384Z,9.50
2022-11-06T03:44:41.429Z,9.00
2022-11-06T03:47:49.668Z,9.10
2022-11-06T03:51:07.014Z,10.20
2022-11-06T03:54:29.569Z,8.60
2022-11-06T04:00:49.651Z,7.50
2022-11-06T04:04:05.557Z,7.60
2022-11-06T04:07:13.454Z,8.90
2022-11-06T04:10:34.723Z,8.00
2022-11-06T04:14:00.868Z,8.40
2022-11-06T04:17:09.542Z,8.10
2022-11-06T04:20:38.731Z,9.00
2022-11-06T04:24:20.656Z,8.80
2022-11-06T04:27:32.541Z,8.70
2022-11-06T04:30:45.181Z,8.70
2022-11-06T04:33:58.633Z,8.70
2022-11-06T04:37:21.264Z,8.60
2022-11-06T04:43:48.842Z,8.50
2022-11-06T04:47:00.831Z,8.80
2022-11-06T04:50:07.838Z,8.60
2022-11-06T04:53:11.584Z,9.20
2022-11-06T04:56:25.556Z,9.50
2022-11-06T04:59:32.219Z,10.10
2022-11-06T05:02:35.147Z,10.50
2022-11-06T05:05:38.223Z,9.30
2022-11-06T05:08:41.267Z,7.80
2022-11-06T05:11:44.490Z,6.90
2022-11-06T05:14:47.486Z,5.40
2022-11-06T05:17:50.373Z,6.20
2022-11-06T05:21:12.149Z,5.70
2022-11-06T05:24:15.022Z,5.10
2022-11-06T05:27:18.043Z,6.20
2022-11-06T05:30:21.583Z,6.30
2022-11-06T05:33:24.529Z,6.40
2022-11-06T05:36:27.411Z,7.60
2022-11-06T05:39:30.336Z,5.90
2022-11-06T05:42:33.304Z,6.10
2022-11-06T05:45:36.993Z,6.20
2022-11-06T05:48:40.203Z,6.70
2022-11-06T05:51:43.201Z,6.60
2022-11-06T05:54:46.138Z,6.90
2022-11-06T05:57:49.138Z,6.90
2022-11-06T06:00:52.436Z,6.50
2022-11-06T06:03:55.419Z,7.10
2022-11-06T06:06:58.475Z,5.70
2022-11-06T06:10:01.674Z,6.50
2022-11-06T06:13:04.602Z,6.20
2022-11-06T06:16:07.663Z,6.40
2022-11-06T06:19:10.632Z,6.00
2022-11-06T06:22:13.556Z,7.40
2022-11-06T06:25:22.654Z,6.20
2022-11-06T06:28:26.071Z,6.80
2022-11-06T06:31:29.498Z,7.20
2022-11-06T06:34:32.708Z,7.10
2022-11-06T06:37:35.716Z,7.70
2022-11-06T06:40:38.688Z,7.80
2022-11-06T06:43:41.617Z,8.50
2022-11-06T06:46:44.831Z,7.70
2022-11-06T06:49:47.733Z,8.50
2022-11-06T06:52:55.810Z,7.30
2022-11-06T06:56:00.684Z,7.80
2022-11-06T06:59:03.586Z,7.50
2022-11-06T07:02:06.646Z,7.70
2022-11-06T07:05:09.622Z,7.60
2022-11-06T07:08:15.351Z,8.70
2022-11-06T07:11:18.605Z,11.90
2022-11-06T07:14:21.528Z,20.00
2022-11-06T07:17:24.514Z,21.60
2022-11-06T07:20:27.518Z,15.60
2022-11-06T07:23:30.486Z,11.10
2022-11-06T07:26:33.823Z,9.60
2022-11-06T07:29:37.112Z,13.50
2022-11-06T07:32:40.063Z,17.50
2022-11-06T07:35:43.038Z,21.90
2022-11-06T07:38:46.031Z,19.40
2022-11-06T07:41:49.675Z,17.60
2022-11-06T07:44:55.480Z,21.80
2022-11-06T07:47:59.289Z,39.70
2022-11-06T07:51:06.108Z,45.70
2022-11-06T07:54:10.551Z,47.30
2022-11-06T07:57:13.692Z,42.50
2022-11-06T08:00:16.839Z,42.60
2022-11-06T08:03:20.373Z,40.30
2022-11-06T08:06:23.335Z,40.70
2022-11-06T08:09:26.245Z,40.70
2022-11-06T08:12:29.138Z,36.40
2022-11-06T08:15:32.033Z,40.90
2022-11-06T08:18:36.207Z,41.90
2022-11-06T08:21:39.292Z,32.50
2022-11-06T08:24:43.044Z,27.60
2022-11-06T08:27:46.192Z,32.10
2022-11-06T08:30:49.398Z,28.30
2022-11-06T08:33:53.552Z,21.90
2022-11-06T08:36:56.436Z,20.00
2022-11-06T08:39:59.390Z,20.20
2022-11-06T08:43:04.919Z,20.50
2022-11-06T08:46:09.710Z,19.10
2022-11-06T08:49:12.728Z,18.90
2022-11-06T08:52:15.752Z,18.90
2022-11-06T08:55:18.655Z,17.00
2022-11-06T08:58:21.646Z,20.80
2022-11-06T09:01:24.695Z,20.10
2022-11-06T09:04:27.731Z,15.70
2022-11-06T09:07:30.873Z,12.40
2022-11-06T09:10:34.120Z,13.40
2022-11-06T09:13:37.004Z,12.90
2022-11-06T09:16:39.919Z,12.30
2022-11-06T09:19:42.796Z,11.60
2022-11-06T09:22:46.488Z,10.50
2022-11-06T09:25:49.817Z,9.50
2022-11-06T09:28:52.773Z,11.80
2022-11-06T09:31:55.786Z,16.40
2022-11-06T09:34:58.865Z,12.50
2022-11-06T09:38:07.267Z,19.40
2022-11-06T09:41:47.141Z,18.80
2022-11-06T09:45:02.005Z,14.20
2022-11-06T09:48:21.211Z,12.00
2022-11-06T09:51:24.100Z,9.40
2022-11-06T09:54:38.801Z,9.00
2022-11-06T09:57:48.711Z,4.20
2022-11-06T10:00:54.272Z,2.90
2022-11-06T10:04:00.206Z,1.90
2022-11-06T10:07:03.140Z,2.90
2022-11-06T10:10:14.881Z,3.60
2022-11-06T10:13:45.477Z,4.00
2022-11-06T10:16:54.024Z,4.30
2022-11-06T10:20:00.219Z,4.60
2022-11-06T10:23:15.728Z,4.00
2022-11-06T10:26:22.096Z,4.40
2022-11-06T10:29:56.052Z,4.20
2022-11-06T10:33:11.220Z,3.50
2022-11-06T10:36:24.014Z,3.10
2022-11-06T10:39:31.819Z,3.20
2022-11-06T10:42:38.662Z,2.30
2022-11-06T10:45:47.772Z,2.50
2022-11-06T10:48:58.445Z,1.90
2022-11-06T10:52:15.719Z,2.00
2022-11-06T10:55:46.569Z,2.20
2022-11-06T10:58:49.574Z,3.00
2022-11-06T11:01:52.687Z,3.00
2022-11-06T11:04:58.193Z,2.80
2022-11-06T11:08:01.613Z,3.10
2022-11-06T11:11:13.690Z,3.50
2022-11-06T11:17:26.177Z,3.20
2022-11-06T11:20:32.836Z,3.70
2022-11-06T11:23:36.083Z,5.10
2022-11-06T11:26:49.363Z,4.00
2022-11-06T11:29:52.295Z,4.00
2022-11-06T11:32:57.313Z,3.90
2022-11-06T11:36:02.309Z,4.00
2022-11-06T11:39:05.329Z,4.20
2022-11-06T11:42:30.898Z,5.10
2022-11-06T11:45:33.830Z,5.20
2022-11-06T11:48:51.478Z,5.50
2022-11-06T11:51:56.050Z,5.00
2022-11-06T11:54:58.995Z,4.80
2022-11-06T11:58:02.293Z,6.50
2022-11-06T12:01:07.588Z,4.80
2022-11-06T12:04:17.433Z,5.50
2022-11-06T12:07:33.973Z,4.50
2022-11-06T12:10:39.723Z,4.80
2022-11-06T12:13:42.694Z,4.30
2022-11-06T12:16:50.198Z,4.90
2022-11-06T12:19:57.768Z,5.10
2022-11-06T12:23:04.119Z,5.50
2022-11-06T12:26:33.428Z,4.90
2022-11-06T12:30:02.516Z,5.30
2022-11-06T12:33:17.612Z,4.80
2022-11-06T12:36:24.756Z,6.10
2022-11-06T12:39:32.914Z,5.20
2022-11-06T12:42:36.117Z,5.20
2022-11-06T12:45:56.835Z,4.90
2022-11-06T12:49:21.000Z,5.00
2022-11-06T12:52:41.894Z,5.80
2022-11-06T12:56:13.092Z,13.10
2022-11-06T12:59:38.274Z,6.90
2022-11-06T13:03:09.248Z,6.20
2022-11-06T13:06:21.283Z,5.80
2022-11-06T13:09:49.065Z,5.20
2022-11-06T13:13:30.788Z,4.60
2022-11-06T13:16:41.931Z,4.80
2022-11-06T13:20:12.500Z,5.50
2022-11-06T13:23:23.521Z,6.50
2022-11-06T13:26:34.739Z,5.50
2022-11-06T13:29:38.389Z,6.10
2022-11-06T13:32:48.494Z,5.20
2022-11-06T13:35:55.979Z,4.70
2022-11-06T13:39:18.046Z,4.50
2022-11-06T13:42:29.695Z,5.00
2022-11-06T13:46:14.214Z,5.70
2022-11-06T13:49:28.300Z,5.80
2022-11-06T13:52:48.588Z,5.90
2022-11-06T13:56:01.079Z,6.30
2022-11-06T13:59:16.047Z,6.60
2022-11-06T14:02:35.245Z,7.50
2022-11-06T14:05:50.767Z,6.80
2022-11-06T14:08:56.680Z,7.40
2022-11-06T14:12:03.392Z,7.50
2022-11-06T14:15:28.607Z,7.70
2022-11-06T14:18:32.328Z,7.50
2022-11-06T14:21:55.874Z,8.20
2022-11-06T14:25:02.040Z,7.80
2022-11-06T14:28:06.303Z,7.50
2022-11-06T14:31:12.676Z,7.00
2022-11-06T14:34:28.946Z,7.50
2022-11-06T14:37:31.849Z,7.30
2022-11-06T14:40:35.419Z,6.90
2022-11-06T14:43:38.423Z,7.30
2022-11-06T14:46:49.811Z,7.70
2022-11-06T14:49:55.164Z,7.00
2022-11-06T14:53:04.990Z,7.70
2022-11-06T14:56:10.817Z,6.50
2022-11-06T14:59:22.008Z,6.20
2022-11-06T15:02:31.151Z,6.70
2022-11-06T15:05:42.020Z,8.40
2022-11-06T15:08:45.413Z,7.50
2022-11-06T15:11:50.323Z,8.10
2022-11-06T15:14:55.121Z,8.10
2022-11-06T15:17:59.711Z,7.60
2022-11-06T15:21:08.502Z,9.40
2022-11-06T15:24:25.985Z,9.60
2022-11-06T15:27:43.279Z,9.40
2022-11-06T15:31:00.981Z,12.10
2022-11-06T15:34:16.616Z,12.10
2022-11-06T15:37:23.745Z,12.90
2022-11-06T15:40:38.912Z,16.30
2022-11-06T15:43:45.295Z,18.60
2022-11-06T15:46:59.068Z,23.30
2022-11-06T15:50:18.839Z,22.20
2022-11-06T15:53:26.097Z,25.70
2022-11-06T15:56:33.620Z,26.60
2022-11-06T15:59:36.586Z,27.20
2022-11-06T16:02:48.874Z,28.30
2022-11-06T16:08:57.741Z,26.40
2022-11-06T16:12:01.087Z,28.00
2022-11-06T16:15:04.390Z,25.50
2022-11-06T16:18:16.291Z,23.30
2022-11-06T16:21:26.045Z,21.80
2022-11-06T16:24:34.172Z,22.50
2022-11-06T16:27:41.900Z,25.80
2022-11-06T16:30:48.516Z,26.40
2022-11-06T16:33:59.668Z,23.30
2022-11-06T16:37:31.623Z,20.50
2022-11-06T16:40:49.965Z,17.70
2022-11-06T16:44:22.629Z,16.30
2022-11-06T16:47:29.572Z,16.00
2022-11-06T16:50:43.381Z,15.80
2022-11-06T16:53:55.947Z,16.60
2022-11-06T16:57:12.820Z,16.20
2022-11-06T17:00:29.855Z,16.40
2022-11-06T17:03:46.358Z,16.80
2022-11-06T17:06:51.304Z,16.60
2022-11-06T17:09:56.312Z,17.50
2022-11-06T17:12:59.523Z,17.90
2022-11-06T17:16:05.524Z,18.70
2022-11-06T17:19:08.511Z,18.60
2022-11-06T17:22:11.459Z,20.10
2022-11-06T17:25:14.701Z,19.20
2022-11-06T17:28:19.045Z,19.70
2022-11-06T17:31:24.019Z,21.10
2022-11-06T17:34:32.750Z,23.70
2022-11-06T17:37:37.338Z,25.10
2022-11-06T17:40:41.502Z,27.90
2022-11-06T17:43:44.583Z,27.80
2022-11-06T17:46:47.617Z,28.50
2022-11-06T17:49:51.045Z,27.80
2022-11-06T17:52:54.140Z,24.70
2022-11-06T17:55:57.083Z,26.70
2022-11-06T17:59:00.148Z,28.20
2022-11-06T18:02:04.146Z,27.80
2022-11-06T18:05:08.389Z,29.20
2022-11-06T18:08:13.426Z,31.00
2022-11-06T18:11:16.664Z,32.00
2022-11-06T18:14:20.639Z,33.00
2022-11-06T18:17:23.657Z,33.00
2022-11-06T18:20:26.907Z,31.50
2022-11-06T18:23:30.129Z,28.10
2022-11-06T18:26:33.504Z,26.70
2022-11-06T18:29:36.720Z,25.60
2022-11-06T18:32:39.628Z,24.60
2022-11-06T18:35:42.732Z,22.40
2022-11-06T18:38:45.784Z,21.40
2022-11-06T18:41:48.974Z,21.70
2022-11-06T18:44:52.011Z,21.10
2022-11-06T18:47:54.983Z,20.60
2022-11-06T18:50:58.194Z,19.70
2022-11-06T18:54:04.617Z,19.30
2022-11-06T18:57:07.602Z,19.90
2022-11-06T19:00:13.307Z,21.30
2022-11-06T19:03:16.210Z,20.50
2022-11-06T19:06:20.577Z,19.80
2022-11-06T19:09:23.485Z,22.30
2022-11-06T19:12:26.470Z,21.80
2022-11-06T19:15:29.388Z,21.70
2022-11-06T19:18:35.133Z,24.60
2022-11-06T19:21:40.392Z,26.20
2022-11-06T19:24:43.440Z,26.60
2022-11-06T19:27:47.254Z,29.10
2022-11-06T19:30:50.988Z,29.20
2022-11-06T19:33:55.497Z,28.60
2022-11-06T19:36:58.473Z,27.80
2022-11-06T19:40:06.164Z,29.50
2022-11-06T19:43:09.654Z,27.50
2022-11-06T19:46:12.620Z,27.50
2022-11-06T19:49:16.534Z,25.50
2022-11-06T19:52:41.499Z,27.20
2022-11-06T19:55:42.831Z,24.30
2022-11-06T19:58:47.431Z,25.10
2022-11-06T20:01:51.072Z,23.70
2022-11-06T20:04:54.062Z,22.70
2022-11-06T20:07:57.116Z,22.20
2022-11-06T20:11:13.955Z,22.40
2022-11-06T20:14:21.686Z,23.00
2022-11-06T20:17:24.806Z,22.20
2022-11-06T20:20:31.833Z,22.80
2022-11-06T20:23:38.826Z,22.10
2022-11-06T20:26:42.283Z,22.10
2022-11-06T20:29:45.739Z,22.90
2022-11-06T20:32:48.844Z,26.10
2022-11-06T20:35:51.838Z,28.90
2022-11-06T20:38:57.742Z,29.60
2022-11-06T20:42:00.755Z,29.80
2022-11-06T20:45:04.888Z,29.40
2022-11-06T20:48:09.589Z,25.80
2022-11-06T20:51:15.362Z,24.60
2022-11-06T20:54:18.492Z,23.10
2022-11-06T20:57:21.503Z,25.70
2022-11-06T21:00:24.657Z,24.80
2022-11-06T21:03:27.679Z,24.80
2022-11-06T21:06:31.080Z,24.50
2022-11-06T21:09:34.206Z,24.40
2022-11-06T21:12:37.291Z,23.70
2022-11-06T21:15:40.244Z,25.80
2022-11-06T21:18:43.538Z,26.80
2022-11-06T21:21:47.103Z,25.60
2022-11-06T21:24:50.197Z,24.60
2022-11-06T21:27:53.287Z,25.40
2022-11-06T21:30:56.359Z,24.90
2022-11-06T21:34:01.373Z,27.20
2022-11-06T21:37:04.305Z,27.30
2022-11-06T21:40:07.629Z,25.60
2022-11-06T21:43:10.851Z,26.60
2022-11-06T21:46:14.884Z,26.60
2022-11-06T21:49:17.878Z,25.40
2022-11-06T21:52:42.666Z,26.70
2022-11-06T21:56:00.756Z,25.80
2022-11-06T21:59:05.574Z,26.60
2022-11-06T22:02:09.287Z,27.20
2022-11-06T22:05:12.352Z,26.30
2022-11-06T22:08:15.423Z,26.10
2022-11-06T22:11:20.136Z,23.90
2022-11-06T22:14:23.161Z,24.60
2022-11-06T22:17:26.284Z,23.10
2022-11-06T22:20:29.268Z,22.90
2022-11-06T22:23:33.726Z,24.10
2022-11-06T22:26:37.987Z,26.70
2022-11-06T22:29:41.408Z,27.70
2022-11-06T22:32:44.417Z,27.40
2022-11-06T22:35:47.491Z,26.90
2022-11-06T22:38:51.147Z,26.30
2022-11-06T22:41:54.167Z,26.50
2022-11-06T22:44:57.346Z,26.40
2022-11-06T22:48:00.562Z,25.10
2022-11-06T22:51:07.684Z,25.60
2022-11-06T22:54:10.620Z,24.90
2022-11-06T22:57:13.633Z,24.90
2022-11-06T23:00:17.792Z,24.50
2022-11-06T23:03:22.136Z,23.70
2022-11-06T23:06:26.020Z,24.10
2022-11-06T23:09:29.052Z,23.70
2022-11-06T23:12:32.079Z,24.10
2022-11-06T23:15:35.514Z,22.80
2022-11-06T23:18:38.603Z,23.90
2022-11-06T23:21:42.613Z,22.50
2022-11-06T23:24:45.929Z,22.00
2022-11-06T23:27:50.097Z,22.30
2022-11-06T23:30:53.171Z,23.00
2022-11-06T23:33:56.199Z,23.20
2022-11-06T23:36:59.122Z,23.50
2022-11-06T23:40:03.018Z,23.30
2022-11-06T23:43:05.946Z,23.50
2022-11-06T23:46:08.916Z,21.80
2022-11-06T23:49:11.910Z,23.40
2022-11-06T23:52:15.065Z,22.30
2022-11-06T23:55:18.059Z,22.00
2022-11-06T23:58:20.966Z,22.20
